Portada
METAR-TAF:

METAR-TAF

Aeroports :

Nowshahr, Iran

latitud: 36-39-48N, longitud: 051-27-53E, altitud: 0 m

Observació

L'informe es va fer fa 11 minuts, a les 17:00 UTC
Vent 2 kt del Sud/Sud-Oest
Temperatura 26°C
Humitat 79%
Pressió 1010 hPa
Visibilitat 10 km o més
Escasses núvols a una alçada de 2000 ft, Cumulonimbus.
Núvols disperses a una alçada de 2500 ft

METAR: OINN 151700Z 21002KT 9999 FEW020CB SCT025 26/22 Q1010

Hora: 21:41 (17:11 UTC)


TAF: manca

Observacions i pronòstics meteorològics de més de 4000 aeroports (METAR i TAF).

Les estacions disponibles són els punts grocs i vermells al mapa.

Posi el ratolí al punt desitjat per veure el nom de l'estació.

Feu clic per veure les observacions i els pronòstics meteorològics.

Per canviar el mapa: feu clic els botons verds amb una creu de color negre per apropar; al botó verd amb un guió per allunyar la imatge; o en les fletxes verdes per a mapes adjacents.


METAR-TAF: